createdAt,value
2018-04-14T00:01:24.352Z,11.60
2018-04-14T00:03:51.857Z,11.60
2018-04-14T00:06:19.433Z,11.60
2018-04-14T00:08:46.942Z,11.60
2018-04-14T00:11:15.311Z,11.50
2018-04-14T00:13:42.778Z,11.50
2018-04-14T00:16:10.301Z,11.50
2018-04-14T00:18:37.818Z,11.50
2018-04-14T00:21:05.357Z,11.50
2018-04-14T00:23:32.966Z,11.50
2018-04-14T00:26:00.522Z,11.50
2018-04-14T00:28:28.878Z,11.40
2018-04-14T00:30:56.414Z,11.40
2018-04-14T00:33:23.937Z,11.40
2018-04-14T00:35:51.450Z,11.40
2018-04-14T00:38:19.037Z,11.30
2018-04-14T00:40:47.347Z,11.30
2018-04-14T00:43:14.862Z,11.20
2018-04-14T00:45:43.160Z,11.30
2018-04-14T00:48:10.670Z,11.30
2018-04-14T00:50:38.217Z,11.30
2018-04-14T00:53:17.490Z,11.30
2018-04-14T00:55:45.017Z,11.30
2018-04-14T00:58:12.521Z,11.20
2018-04-14T01:00:40.833Z,11.20
2018-04-14T01:03:08.363Z,11.20
2018-04-14T01:05:36.645Z,11.10
2018-04-14T01:08:04.187Z,11.10
2018-04-14T01:10:31.717Z,11.10
2018-04-14T01:12:59.349Z,11.10
2018-04-14T01:15:26.877Z,11.00
2018-04-14T01:17:54.405Z,11.00
2018-04-14T01:20:21.917Z,11.00
2018-04-14T01:22:49.477Z,10.90
2018-04-14T01:25:16.994Z,10.90
2018-04-14T01:27:44.521Z,10.90
2018-04-14T01:30:12.059Z,10.80
2018-04-14T01:32:39.564Z,10.90
2018-04-14T01:35:07.085Z,10.80
2018-04-14T01:37:34.653Z,10.90
2018-04-14T01:40:02.210Z,10.90
2018-04-14T01:42:30.757Z,10.90
2018-04-14T01:44:59.085Z,10.90
2018-04-14T01:47:26.611Z,10.90
2018-04-14T01:49:54.890Z,10.90
2018-04-14T01:52:23.185Z,11.00
2018-04-14T01:54:51.465Z,11.00
2018-04-14T01:57:19.776Z,10.90
2018-04-14T01:59:47.327Z,10.90
2018-04-14T02:02:15.622Z,10.90
2018-04-14T02:04:43.145Z,10.90
2018-04-14T02:07:11.462Z,11.00
2018-04-14T02:09:38.976Z,10.90
2018-04-14T02:12:06.491Z,10.90
2018-04-14T02:14:34.076Z,10.90
2018-04-14T02:17:02.445Z,10.90
2018-04-14T02:19:30.025Z,10.90
2018-04-14T02:21:57.543Z,10.90
2018-04-14T02:24:25.573Z,10.80
2018-04-14T02:26:53.085Z,10.80
2018-04-14T02:29:21.385Z,10.80
2018-04-14T02:31:48.921Z,10.70
2018-04-14T02:34:17.964Z,10.70
2018-04-14T02:36:45.530Z,10.70
2018-04-14T02:39:13.037Z,10.70
2018-04-14T02:41:40.567Z,10.70
2018-04-14T02:44:08.093Z,10.60
2018-04-14T02:46:35.613Z,10.60
2018-04-14T02:49:03.141Z,10.60
2018-04-14T02:51:30.687Z,10.50
2018-04-14T02:53:59.038Z,10.50
2018-04-14T02:56:26.585Z,10.50
2018-04-14T02:58:54.095Z,10.50
2018-04-14T03:01:21.630Z,10.40
2018-04-14T03:03:49.947Z,10.40
2018-04-14T03:06:17.481Z,10.40
2018-04-14T03:08:45.786Z,10.30
2018-04-14T03:11:14.058Z,10.30
2018-04-14T03:13:41.581Z,10.30
2018-04-14T03:16:09.090Z,10.30
2018-04-14T03:18:36.661Z,10.30
2018-04-14T03:21:04.285Z,10.30
2018-04-14T03:23:31.844Z,10.30
2018-04-14T03:25:59.975Z,10.20
2018-04-14T03:28:27.507Z,10.20
2018-04-14T03:30:55.033Z,10.20
2018-04-14T03:33:22.553Z,10.10
2018-04-14T03:35:50.093Z,10.10
2018-04-14T03:38:18.400Z,10.00
2018-04-14T03:40:45.940Z,10.00
2018-04-14T03:43:13.446Z,10.00
2018-04-14T03:45:40.967Z,10.00
2018-04-14T03:48:08.490Z,10.00
2018-04-14T03:50:36.026Z,10.00
2018-04-14T03:53:03.593Z,10.00
2018-04-14T03:55:31.114Z,9.90
2018-04-14T03:57:58.712Z,9.90
2018-04-14T04:00:26.225Z,9.90
2018-04-14T04:02:54.522Z,9.80
2018-04-14T04:05:22.027Z,9.80
2018-04-14T04:07:49.563Z,9.80
2018-04-14T04:10:17.085Z,9.80
2018-04-14T04:12:45.254Z,9.80
2018-04-14T04:15:12.778Z,9.80
2018-04-14T04:17:41.044Z,9.80
2018-04-14T04:23:24.700Z,9.80
2018-04-14T04:25:52.231Z,9.80
2018-04-14T04:28:19.758Z,9.80
2018-04-14T04:30:47.293Z,9.80
2018-04-14T04:33:14.809Z,9.80
2018-04-14T04:35:43.090Z,9.80
2018-04-14T04:38:10.613Z,9.80
2018-04-14T04:40:38.128Z,9.90
2018-04-14T04:43:05.661Z,9.90
2018-04-14T04:45:33.277Z,9.90
2018-04-14T04:48:01.677Z,9.90
2018-04-14T04:50:29.241Z,9.90
2018-04-14T04:52:56.805Z,9.90
2018-04-14T04:55:24.306Z,9.90
2018-04-14T04:57:52.574Z,9.80
2018-04-14T05:00:20.125Z,9.80
2018-04-14T05:02:47.642Z,9.80
2018-04-14T05:05:15.189Z,9.80
2018-04-14T05:07:42.686Z,9.80
2018-04-14T05:10:10.216Z,9.90
2018-04-14T05:12:37.738Z,9.90
2018-04-14T05:15:05.287Z,9.90
2018-04-14T05:17:33.581Z,9.90
2018-04-14T05:20:01.899Z,9.90
2018-04-14T05:22:30.322Z,10.00
2018-04-14T05:24:57.838Z,9.90
2018-04-14T05:27:25.385Z,9.90
2018-04-14T05:29:52.908Z,10.00
2018-04-14T05:32:20.502Z,9.90
2018-04-14T05:34:48.049Z,10.00
2018-04-14T05:37:15.592Z,10.00
2018-04-14T05:39:43.887Z,9.90
2018-04-14T05:42:11.402Z,10.00
2018-04-14T05:44:38.926Z,10.00
2018-04-14T05:47:06.442Z,10.00
2018-04-14T05:49:33.986Z,10.00
2018-04-14T05:52:01.519Z,10.00
2018-04-14T05:54:29.838Z,10.10
2018-04-14T05:56:57.362Z,10.10
2018-04-14T05:59:24.890Z,10.10
2018-04-14T06:01:52.399Z,10.10
2018-04-14T06:04:19.928Z,10.20
2018-04-14T06:06:47.557Z,10.20
2018-04-14T06:09:15.853Z,10.40
2018-04-14T06:11:44.159Z,10.50
2018-04-14T06:14:11.677Z,10.40
2018-04-14T06:16:39.209Z,10.40
2018-04-14T06:19:06.744Z,10.40
2018-04-14T06:21:34.308Z,10.50
2018-04-14T06:24:01.847Z,10.50
2018-04-14T06:26:29.454Z,10.70
2018-04-14T06:28:57.221Z,10.70
2018-04-14T06:31:24.744Z,10.70
2018-04-14T06:33:52.308Z,10.80
2018-04-14T06:36:20.580Z,10.90
2018-04-14T06:38:48.894Z,11.00
2018-04-14T06:41:16.653Z,11.00
2018-04-14T06:43:44.270Z,11.10
2018-04-14T06:46:11.782Z,11.20
2018-04-14T06:48:40.057Z,11.20
2018-04-14T06:51:07.581Z,11.20
2018-04-14T06:53:35.138Z,11.40
2018-04-14T06:56:02.685Z,11.40
2018-04-14T06:58:30.996Z,11.60
2018-04-14T07:00:58.638Z,11.50
2018-04-14T07:03:26.316Z,11.80
2018-04-14T07:05:54.625Z,12.00
2018-04-14T07:08:22.140Z,11.90
2018-04-14T07:10:49.661Z,12.10
2018-04-14T07:13:17.205Z,12.20
2018-04-14T07:15:45.505Z,12.30
2018-04-14T07:18:13.825Z,12.30
2018-04-14T07:20:41.339Z,12.30
2018-04-14T07:23:09.653Z,12.30
2018-04-14T07:25:37.931Z,12.40
2018-04-14T07:28:05.507Z,12.40
2018-04-14T07:30:33.813Z,12.50
2018-04-14T07:33:01.362Z,12.50
2018-04-14T07:35:29.731Z,12.60
2018-04-14T07:38:02.832Z,12.70
2018-04-14T07:40:30.473Z,12.70
2018-04-14T07:42:58.885Z,12.90
2018-04-14T07:45:26.450Z,12.90
2018-04-14T07:47:53.957Z,13.00
2018-04-14T07:50:21.866Z,13.10
2018-04-14T07:52:49.397Z,13.20
2018-04-14T07:55:17.693Z,13.40
2018-04-14T07:57:45.325Z,13.40
2018-04-14T08:00:12.819Z,13.60
2018-04-14T08:02:40.355Z,13.80
2018-04-14T08:05:07.876Z,14.00
2018-04-14T08:07:35.418Z,14.20
2018-04-14T08:10:02.999Z,14.30
2018-04-14T08:12:30.617Z,14.30
2018-04-14T08:14:59.168Z,14.40
2018-04-14T08:17:26.737Z,14.50
2018-04-14T08:19:54.283Z,14.60
2018-04-14T08:22:21.790Z,14.60
2018-04-14T08:24:49.321Z,14.50
2018-04-14T08:27:16.846Z,14.60
2018-04-14T08:29:44.392Z,14.60
2018-04-14T08:32:11.897Z,14.60
2018-04-14T08:34:39.433Z,14.60
2018-04-14T08:37:06.968Z,14.80
2018-04-14T08:39:34.506Z,14.90
2018-04-14T08:42:02.866Z,15.10
2018-04-14T08:44:30.469Z,15.10
2018-04-14T08:46:58.851Z,15.00
2018-04-14T08:49:26.381Z,15.00
2018-04-14T08:51:53.899Z,15.10
2018-04-14T08:54:22.218Z,15.00
2018-04-14T08:56:49.741Z,15.00
2018-04-14T08:59:17.270Z,15.10
2018-04-14T09:01:44.791Z,15.20
2018-04-14T09:04:13.093Z,15.50
2018-04-14T09:06:41.383Z,15.70
2018-04-14T09:09:09.743Z,15.90
2018-04-14T09:11:37.221Z,15.90
2018-04-14T09:14:04.862Z,16.10
2018-04-14T09:16:32.433Z,16.30
2018-04-14T09:19:00.036Z,16.60
2018-04-14T09:21:27.582Z,16.80
2018-04-14T09:23:55.101Z,17.00
2018-04-14T09:26:22.665Z,17.00
2018-04-14T09:28:50.205Z,16.90
2018-04-14T09:31:17.762Z,16.80
2018-04-14T09:33:45.284Z,16.80
2018-04-14T09:36:13.566Z,16.60
2018-04-14T09:38:41.873Z,16.50
2018-04-14T09:41:09.398Z,16.50
2018-04-14T09:43:36.929Z,16.50
2018-04-14T09:46:05.473Z,16.30
2018-04-14T09:48:33.033Z,16.20
2018-04-14T09:51:00.621Z,16.10
2018-04-14T09:53:29.044Z,15.90
2018-04-14T09:55:56.570Z,15.90
2018-04-14T09:58:24.087Z,15.90
2018-04-14T10:00:57.197Z,15.70
2018-04-14T10:03:24.705Z,15.80
2018-04-14T10:05:52.235Z,16.00
2018-04-14T10:08:19.757Z,16.20
2018-04-14T10:10:47.302Z,16.70
2018-04-14T10:13:14.820Z,17.10
2018-04-14T10:15:43.110Z,17.60
2018-04-14T10:18:11.392Z,17.90
2018-04-14T10:20:39.705Z,18.30
2018-04-14T10:23:07.226Z,18.30
2018-04-14T10:25:34.829Z,18.80
2018-04-14T10:28:02.421Z,19.10
2018-04-14T10:30:30.161Z,19.40
2018-04-14T10:32:57.733Z,19.60
2018-04-14T10:35:26.029Z,19.70
2018-04-14T10:37:54.481Z,19.30
2018-04-14T10:40:21.902Z,19.30
2018-04-14T10:42:50.294Z,19.70
2018-04-14T10:45:18.638Z,20.10
2018-04-14T10:47:46.233Z,20.10
2018-04-14T10:50:13.785Z,20.50
2018-04-14T10:52:41.310Z,20.90
2018-04-14T10:55:08.852Z,21.30
2018-04-14T10:57:37.142Z,21.80
2018-04-14T11:00:05.457Z,21.90
2018-04-14T11:02:33.042Z,21.90
2018-04-14T11:05:00.713Z,22.10
2018-04-14T11:07:28.295Z,22.10
2018-04-14T11:09:55.826Z,22.10
2018-04-14T11:12:24.142Z,22.30
2018-04-14T11:14:51.695Z,22.20
2018-04-14T11:17:20.024Z,23.00
2018-04-14T11:19:47.564Z,23.00
2018-04-14T11:22:18.329Z,23.30
2018-04-14T11:24:45.863Z,23.50
2018-04-14T11:27:15.143Z,23.90
2018-04-14T11:29:42.744Z,24.00
2018-04-14T11:32:10.242Z,24.20
2018-04-14T11:34:37.785Z,24.10
2018-04-14T11:37:06.070Z,24.40
2018-04-14T11:39:33.653Z,24.40
2018-04-14T11:42:01.266Z,24.40
2018-04-14T11:44:28.835Z,24.20
2018-04-14T11:46:56.386Z,24.50
2018-04-14T11:49:23.926Z,24.50
2018-04-14T11:51:51.451Z,24.60
2018-04-14T11:54:19.023Z,24.60
2018-04-14T11:56:46.570Z,24.40
2018-04-14T11:59:14.089Z,24.70
2018-04-14T12:01:42.902Z,24.60
2018-04-14T12:04:10.425Z,24.70
2018-04-14T12:06:37.977Z,24.70
2018-04-14T12:09:06.258Z,25.00
2018-04-14T12:11:33.855Z,24.90
2018-04-14T12:14:01.664Z,24.90
2018-04-14T12:16:30.029Z,24.70
2018-04-14T12:18:57.574Z,24.60
2018-04-14T12:21:25.122Z,25.00
2018-04-14T12:23:53.430Z,25.30
2018-04-14T12:26:20.989Z,25.30
2018-04-14T12:28:48.526Z,25.30
2018-04-14T12:31:16.074Z,25.30
2018-04-14T12:33:43.598Z,25.30
2018-04-14T12:36:11.913Z,25.10
2018-04-14T12:38:39.529Z,25.00
2018-04-14T12:41:07.139Z,25.30
2018-04-14T12:43:35.490Z,25.50
2018-04-14T12:46:03.153Z,25.50
2018-04-14T12:48:30.741Z,25.50
2018-04-14T12:50:59.098Z,25.60
2018-04-14T12:53:26.646Z,25.60
2018-04-14T12:55:54.157Z,25.50
2018-04-14T12:58:21.722Z,25.70
2018-04-14T13:00:49.286Z,25.70
2018-04-14T13:03:16.814Z,25.70
2018-04-14T13:05:45.181Z,25.50
2018-04-14T13:08:12.676Z,25.40
2018-04-14T13:10:40.211Z,24.90
2018-04-14T13:13:07.734Z,24.40
2018-04-14T13:15:35.722Z,24.40
2018-04-14T13:18:03.266Z,24.30
2018-04-14T13:20:31.586Z,24.30
2018-04-14T13:22:59.202Z,24.30
2018-04-14T13:25:26.725Z,24.80
2018-04-14T13:27:54.266Z,25.00
2018-04-14T13:30:22.709Z,24.90
2018-04-14T13:32:50.354Z,24.80
2018-04-14T13:35:17.924Z,24.90
2018-04-14T13:37:45.443Z,25.00
2018-04-14T13:40:12.971Z,25.20
2018-04-14T13:42:40.531Z,25.30
2018-04-14T13:45:08.056Z,25.50
2018-04-14T13:47:35.595Z,25.50
2018-04-14T13:50:03.220Z,25.60
2018-04-14T13:52:30.877Z,25.50
2018-04-14T13:54:58.828Z,25.70
2018-04-14T13:57:26.527Z,26.10
2018-04-14T13:59:54.078Z,25.80
2018-04-14T14:02:21.705Z,25.50
2018-04-14T14:04:50.073Z,25.50
2018-04-14T14:07:17.652Z,25.40
2018-04-14T14:09:45.972Z,25.50
2018-04-14T14:12:13.519Z,25.50
2018-04-14T14:14:41.810Z,25.40
2018-04-14T14:17:10.098Z,25.40
2018-04-14T14:19:39.274Z,25.40
2018-04-14T14:22:06.856Z,25.40
2018-04-14T14:24:34.416Z,25.00
2018-04-14T14:27:02.085Z,24.80
2018-04-14T14:29:29.720Z,24.50
2018-04-14T14:31:57.277Z,24.30
2018-04-14T14:34:25.022Z,23.60
2018-04-14T14:36:52.579Z,23.30
2018-04-14T14:39:20.107Z,23.10
2018-04-14T14:41:47.640Z,22.80
2018-04-14T14:44:15.192Z,22.40
2018-04-14T14:46:42.701Z,22.40
2018-04-14T14:49:11.001Z,21.90
2018-04-14T14:51:39.538Z,21.80
2018-04-14T14:54:07.075Z,21.70
2018-04-14T14:56:34.620Z,21.50
2018-04-14T14:59:02.969Z,21.00
2018-04-14T15:01:30.610Z,20.90
2018-04-14T15:03:58.158Z,20.80
2018-04-14T15:06:26.430Z,20.50
2018-04-14T15:08:53.965Z,20.50
2018-04-14T15:11:21.481Z,20.50
2018-04-14T15:13:49.834Z,20.20
2018-04-14T15:16:17.423Z,20.30
2018-04-14T15:18:44.929Z,20.20
2018-04-14T15:21:13.243Z,20.10
2018-04-14T15:23:40.753Z,20.10
2018-04-14T15:26:08.282Z,20.20
2018-04-14T15:28:35.789Z,20.20
2018-04-14T15:31:03.357Z,20.30
2018-04-14T15:33:30.908Z,20.60
2018-04-14T15:35:58.579Z,20.80
2018-04-14T15:38:26.090Z,20.90
2018-04-14T15:40:53.605Z,20.80
2018-04-14T15:43:21.140Z,20.90
2018-04-14T15:45:49.437Z,21.00
2018-04-14T15:48:16.998Z,21.00
2018-04-14T15:50:45.284Z,20.70
2018-04-14T15:53:12.830Z,20.70
2018-04-14T15:55:40.344Z,20.50
2018-04-14T15:58:07.917Z,20.40
2018-04-14T16:00:36.186Z,19.90
2018-04-14T16:03:04.590Z,19.70
2018-04-14T16:05:32.315Z,19.70
2018-04-14T16:07:59.905Z,19.60
2018-04-14T16:10:27.484Z,19.40
2018-04-14T16:12:54.999Z,19.20
2018-04-14T16:15:22.568Z,19.20
2018-04-14T16:17:50.100Z,19.20
2018-04-14T16:20:17.639Z,19.00
2018-04-14T16:22:45.162Z,19.00
2018-04-14T16:25:13.498Z,19.00
2018-04-14T16:27:41.050Z,18.90
2018-04-14T16:30:08.582Z,18.90
2018-04-14T16:32:36.994Z,18.60
2018-04-14T16:35:04.543Z,18.60
2018-04-14T16:37:32.889Z,18.60
2018-04-14T16:40:00.405Z,18.50
2018-04-14T16:42:28.851Z,18.40
2018-04-14T16:44:56.410Z,18.30
2018-04-14T16:47:23.938Z,18.20
2018-04-14T16:49:51.450Z,18.30
2018-04-14T16:52:19.017Z,18.10
2018-04-14T16:54:46.533Z,18.00
2018-04-14T16:57:14.067Z,17.80
2018-04-14T16:59:41.786Z,17.70
2018-04-14T17:02:09.294Z,17.60
2018-04-14T17:04:36.855Z,17.60
2018-04-14T17:07:05.133Z,17.60
2018-04-14T17:09:32.711Z,17.60
2018-04-14T17:12:01.105Z,17.40
2018-04-14T17:14:28.720Z,17.40
2018-04-14T17:16:56.237Z,17.40
2018-04-14T17:19:23.777Z,17.30
2018-04-14T17:21:51.283Z,17.30
2018-04-14T17:24:19.608Z,17.10
2018-04-14T17:26:47.122Z,17.10
2018-04-14T17:29:14.638Z,16.90
2018-04-14T17:31:42.169Z,16.80
2018-04-14T17:34:09.978Z,16.80
2018-04-14T17:36:37.509Z,16.80
2018-04-14T17:39:05.887Z,16.70
2018-04-14T17:41:33.517Z,16.80
2018-04-14T17:44:01.069Z,16.70
2018-04-14T17:46:29.127Z,16.70
2018-04-14T17:48:56.636Z,16.60
2018-04-14T17:51:24.177Z,16.50
2018-04-14T17:53:51.688Z,16.50
2018-04-14T17:56:19.451Z,16.40
2018-04-14T17:58:46.992Z,16.30
2018-04-14T18:01:14.523Z,16.20
2018-04-14T18:03:42.094Z,16.10
2018-04-14T18:06:09.607Z,16.00
2018-04-14T18:08:37.141Z,16.00
2018-04-14T18:11:04.729Z,16.00
2018-04-14T18:13:32.365Z,15.90
2018-04-14T18:15:59.958Z,15.90
2018-04-14T18:18:27.475Z,15.80
2018-04-14T18:20:55.777Z,15.70
2018-04-14T18:23:23.293Z,15.70
2018-04-14T18:25:51.021Z,15.70
2018-04-14T18:28:18.563Z,15.60
2018-04-14T18:30:46.092Z,15.50
2018-04-14T18:33:13.593Z,15.50
2018-04-14T18:35:41.205Z,15.40
2018-04-14T18:38:08.713Z,15.40
2018-04-14T18:40:36.226Z,15.40
2018-04-14T18:43:04.548Z,15.40
2018-04-14T18:45:32.066Z,15.40
2018-04-14T18:47:59.645Z,15.40
2018-04-14T18:50:27.150Z,15.30
2018-04-14T18:52:54.739Z,15.30
2018-04-14T18:55:22.245Z,15.20
2018-04-14T18:57:49.887Z,15.10
2018-04-14T19:00:17.401Z,15.00
2018-04-14T19:02:45.696Z,14.90
2018-04-14T19:05:13.222Z,14.90
2018-04-14T19:07:40.753Z,14.90
2018-04-14T19:10:09.082Z,14.80
2018-04-14T19:12:36.587Z,14.80
2018-04-14T19:15:04.132Z,14.70
2018-04-14T19:17:31.702Z,14.70
2018-04-14T19:19:59.281Z,14.70
2018-04-14T19:22:26.793Z,14.70
2018-04-14T19:24:55.106Z,14.60
2018-04-14T19:27:22.634Z,14.60
2018-04-14T19:29:50.157Z,14.60
2018-04-14T19:32:17.743Z,14.60
2018-04-14T19:34:45.243Z,14.60
2018-04-14T19:37:12.780Z,14.60
2018-04-14T19:39:40.517Z,14.60
2018-04-14T19:42:08.811Z,14.50
2018-04-14T19:44:36.333Z,14.50
2018-04-14T19:47:03.887Z,14.50
2018-04-14T19:49:31.411Z,14.50
2018-04-14T19:51:59.721Z,14.50
2018-04-14T19:54:27.246Z,14.50
2018-04-14T19:56:54.767Z,14.50
2018-04-14T19:59:22.301Z,14.50
2018-04-14T20:01:50.573Z,14.50
2018-04-14T20:04:18.143Z,14.50
2018-04-14T20:06:45.650Z,14.50
2018-04-14T20:09:13.173Z,14.50
2018-04-14T20:11:40.683Z,14.40
2018-04-14T20:14:09.001Z,14.40
2018-04-14T20:16:36.537Z,14.40
2018-04-14T20:19:05.478Z,14.30
2018-04-14T20:21:33.022Z,14.30
2018-04-14T20:24:01.305Z,14.30
2018-04-14T20:26:29.617Z,14.20
2018-04-14T20:28:57.145Z,14.20
2018-04-14T20:31:24.734Z,14.20
2018-04-14T20:33:53.000Z,14.10
2018-04-14T20:36:20.534Z,14.10
2018-04-14T20:38:48.130Z,14.10
2018-04-14T20:41:15.662Z,14.10
2018-04-14T20:43:43.201Z,14.10
2018-04-14T20:46:11.494Z,14.10
2018-04-14T20:48:39.765Z,14.00
2018-04-14T20:51:07.298Z,14.00
2018-04-14T20:53:34.806Z,14.00
2018-04-14T20:56:02.365Z,14.00
2018-04-14T20:58:29.946Z,13.90
2018-04-14T21:00:58.278Z,13.90
2018-04-14T21:03:25.806Z,13.90
2018-04-14T21:05:53.340Z,13.80
2018-04-14T21:08:20.846Z,13.90
2018-04-14T21:10:48.425Z,13.80
2018-04-14T21:13:15.976Z,13.80
2018-04-14T21:15:44.292Z,13.80
2018-04-14T21:18:12.622Z,13.70
2018-04-14T21:20:40.126Z,13.70
2018-04-14T21:23:07.667Z,13.70
2018-04-14T21:25:35.189Z,13.70
2018-04-14T21:28:03.530Z,13.70
2018-04-14T21:30:31.144Z,13.70
2018-04-14T21:32:58.814Z,13.70
2018-04-14T21:35:26.329Z,13.80
2018-04-14T21:37:53.862Z,13.70
2018-04-14T21:40:21.381Z,13.80
2018-04-14T21:42:48.987Z,13.80
2018-04-14T21:45:17.317Z,13.80
2018-04-14T21:47:44.845Z,13.80
2018-04-14T21:50:12.357Z,13.80
2018-04-14T21:52:39.893Z,13.80
2018-04-14T21:55:07.393Z,13.90
2018-04-14T21:57:35.695Z,13.90
2018-04-14T22:00:03.233Z,13.90
2018-04-14T22:02:32.455Z,14.00
2018-04-14T22:05:00.178Z,14.00
2018-04-14T22:07:27.698Z,14.00
2018-04-14T22:09:56.003Z,14.00
2018-04-14T22:12:23.518Z,14.00
2018-04-14T22:14:51.065Z,14.10
2018-04-14T22:17:18.641Z,14.10
2018-04-14T22:19:46.200Z,14.10
2018-04-14T22:22:13.713Z,14.10
2018-04-14T22:24:41.245Z,14.10
2018-04-14T22:27:08.765Z,14.20
2018-04-14T22:29:36.298Z,14.10
2018-04-14T22:32:03.825Z,14.10
2018-04-14T22:34:32.134Z,14.10
2018-04-14T22:36:59.678Z,14.10
2018-04-14T22:39:27.242Z,14.10
2018-04-14T22:41:54.749Z,14.10
2018-04-14T22:44:22.268Z,14.00
2018-04-14T22:46:49.797Z,14.10
2018-04-14T22:49:17.318Z,14.10
2018-04-14T22:51:44.882Z,14.00
2018-04-14T22:54:12.394Z,14.00
2018-04-14T22:56:39.941Z,14.00
2018-04-14T22:59:07.446Z,14.00
2018-04-14T23:01:34.975Z,13.90
2018-04-14T23:04:02.520Z,13.90
2018-04-14T23:06:30.145Z,13.80
2018-04-14T23:08:57.683Z,13.80
2018-04-14T23:11:25.384Z,13.80
2018-04-14T23:13:53.649Z,13.90
2018-04-14T23:16:21.181Z,13.90
2018-04-14T23:18:48.705Z,13.90
2018-04-14T23:21:17.074Z,13.80
2018-04-14T23:23:45.379Z,13.70
2018-04-14T23:26:12.893Z,13.70
2018-04-14T23:28:40.425Z,13.70
2018-04-14T23:31:08.714Z,13.50
2018-04-14T23:33:37.016Z,13.40
2018-04-14T23:36:04.577Z,13.40
2018-04-14T23:38:32.237Z,13.30
2018-04-14T23:40:59.798Z,13.30
2018-04-14T23:43:28.158Z,13.20
2018-04-14T23:45:56.507Z,13.20
2018-04-14T23:48:24.064Z,13.10
2018-04-14T23:50:52.350Z,13.10
2018-04-14T23:53:20.650Z,13.00
2018-04-14T23:55:48.990Z,13.00
2018-04-14T23:58:16.549Z,13.00
